createdAt,value
2023-01-27T02:08:41.405Z,99498.39
2023-01-27T02:11:10.437Z,99498.14
2023-01-27T02:13:39.782Z,99505.08
2023-01-27T02:16:10.889Z,99495.92
2023-01-27T02:18:42.715Z,99498.37
2023-01-27T02:21:11.603Z,99504.23
2023-01-27T02:23:48.823Z,99501.80
2023-01-27T02:26:47.612Z,99502.55
2023-01-27T02:29:16.728Z,99507.58
2023-01-27T02:31:46.168Z,99508.69
2023-01-27T02:34:21.095Z,99504.37
2023-01-27T02:36:51.637Z,99501.73
2023-01-27T02:39:22.700Z,99499.20
2023-01-27T02:41:53.272Z,99502.77
2023-01-27T02:44:22.129Z,99503.63
2023-01-27T02:46:51.469Z,99505.67
2023-01-27T02:49:20.748Z,99504.56
2023-01-27T02:51:50.233Z,99503.55
2023-01-27T02:54:19.431Z,99504.10
2023-01-27T02:56:48.731Z,99504.33
2023-01-27T02:59:20.077Z,99514.55
2023-01-27T03:01:49.455Z,99514.48
2023-01-27T03:04:18.296Z,99519.93
2023-01-27T03:06:49.468Z,99523.24
2023-01-27T03:09:18.611Z,99521.77
2023-01-27T03:12:06.213Z,99517.67
2023-01-27T03:14:55.402Z,99509.27
2023-01-27T03:17:43.340Z,99514.19
2023-01-27T03:20:12.658Z,99515.64
2023-01-27T03:22:42.388Z,99524.38
2023-01-27T03:25:14.473Z,99532.80
2023-01-27T03:27:44.035Z,99538.55
2023-01-27T03:30:29.338Z,99547.48
2023-01-27T03:33:10.986Z,99553.55
2023-01-27T03:36:14.394Z,99553.93
2023-01-27T03:39:10.333Z,99550.37
2023-01-27T03:41:58.255Z,99546.48
2023-01-27T03:44:47.307Z,99546.02
2023-01-27T03:47:16.306Z,99552.91
2023-01-27T03:49:45.604Z,99548.30
2023-01-27T03:52:14.560Z,99550.67
2023-01-27T03:54:43.747Z,99551.88
2023-01-27T03:57:12.557Z,99557.22
2023-01-27T03:59:41.584Z,99562.30
2023-01-27T04:02:29.107Z,99557.23
2023-01-27T04:05:18.998Z,99563.89
2023-01-27T04:07:48.588Z,99557.77
2023-01-27T04:10:17.584Z,99554.06
2023-01-27T04:12:51.390Z,99560.86
2023-01-27T04:15:20.899Z,99569.75
2023-01-27T04:17:50.399Z,99564.66
2023-01-27T04:20:20.126Z,99562.49
2023-01-27T04:22:49.210Z,99561.59
2023-01-27T04:25:19.057Z,99558.11
2023-01-27T04:27:48.109Z,99555.80
2023-01-27T04:30:18.326Z,99556.01
2023-01-27T04:32:51.113Z,99559.48
2023-01-27T04:35:23.366Z,99566.61
2023-01-27T04:37:54.357Z,99577.17
2023-01-27T04:40:23.273Z,99577.34
2023-01-27T04:42:54.594Z,99572.33
2023-01-27T04:45:23.356Z,99568.27
2023-01-27T04:47:52.421Z,99574.77
2023-01-27T04:50:21.247Z,99581.02
2023-01-27T04:52:50.069Z,99579.94
2023-01-27T04:55:19.830Z,99582.83
2023-01-27T04:57:48.621Z,99593.17
2023-01-27T05:00:18.346Z,99594.73
2023-01-27T05:02:49.783Z,99596.05
2023-01-27T05:05:18.550Z,99595.94
2023-01-27T05:07:47.805Z,99599.25
2023-01-27T05:10:17.988Z,99597.05
2023-01-27T05:12:47.795Z,99590.34
2023-01-27T05:15:17.512Z,99599.23
2023-01-27T05:17:47.127Z,99602.23
2023-01-27T05:20:17.155Z,99598.52
2023-01-27T05:22:46.430Z,99602.52
2023-01-27T05:25:15.715Z,99613.19
2023-01-27T05:27:44.983Z,99621.82
2023-01-27T05:30:14.588Z,99626.45
2023-01-27T05:32:44.991Z,99629.27
2023-01-27T05:35:14.805Z,99634.68
2023-01-27T05:37:43.963Z,99637.52
2023-01-27T05:40:13.678Z,99640.30
2023-01-27T05:42:46.011Z,99643.70
2023-01-27T05:45:15.424Z,99640.68
2023-01-27T05:47:46.190Z,99636.45
2023-01-27T05:50:17.405Z,99636.71
2023-01-27T05:52:46.784Z,99638.65
2023-01-27T05:55:18.246Z,99645.60
2023-01-27T05:57:54.989Z,99651.48
2023-01-27T06:00:24.565Z,99655.92
2023-01-27T06:02:55.640Z,99655.58
2023-01-27T06:05:24.611Z,99655.66
2023-01-27T06:07:54.402Z,99656.40
2023-01-27T06:10:24.629Z,99661.29
2023-01-27T06:12:53.826Z,99667.92
2023-01-27T06:15:23.219Z,99671.52
2023-01-27T06:17:52.880Z,99674.27
2023-01-27T06:20:22.853Z,99665.19
2023-01-27T06:22:51.648Z,99672.67
2023-01-27T06:25:21.046Z,99670.41
2023-01-27T06:27:56.355Z,99667.08
2023-01-27T06:30:25.187Z,99668.18
2023-01-27T06:33:01.536Z,99663.16
2023-01-27T06:35:39.246Z,99664.98
2023-01-27T06:38:12.513Z,99654.96
2023-01-27T06:40:41.978Z,99658.14
2023-01-27T06:43:14.688Z,99657.41
2023-01-27T06:45:43.554Z,99660.06
2023-01-27T06:48:15.950Z,99653.55
2023-01-27T06:50:44.682Z,99653.33
2023-01-27T06:53:17.266Z,99647.17
2023-01-27T06:55:46.672Z,99642.23
2023-01-27T06:58:16.469Z,99636.90
2023-01-27T07:00:45.978Z,99637.45
2023-01-27T07:03:18.278Z,99635.25
2023-01-27T07:05:47.740Z,99637.05
2023-01-27T11:16:02.236Z,99396.46
2023-01-27T11:18:36.741Z,99375.34
2023-01-27T11:21:07.305Z,99377.20
2023-01-27T11:23:40.922Z,99382.83
2023-01-27T11:26:16.294Z,99378.33
2023-01-27T11:29:03.459Z,99379.01
2023-01-27T11:31:56.986Z,99381.22
2023-01-27T11:34:54.281Z,99387.77
2023-01-27T11:37:31.624Z,99385.43
2023-01-27T11:40:00.620Z,99385.36
2023-01-27T11:42:35.190Z,99375.77
2023-01-27T11:45:04.655Z,99374.42
2023-01-27T11:47:38.997Z,99364.77
2023-01-27T11:50:13.769Z,99358.06
2023-01-27T11:52:43.775Z,99357.50
2023-01-27T11:55:22.450Z,99347.25
2023-01-27T11:57:58.118Z,99336.40
2023-01-27T12:00:31.926Z,99320.67
2023-01-27T12:03:28.997Z,99311.36
2023-01-27T12:06:03.074Z,99317.98
2023-01-27T12:08:50.711Z,99335.27
2023-01-27T12:11:24.401Z,99368.40
2023-01-27T12:14:02.582Z,99384.37
2023-01-27T12:16:34.797Z,99397.45
2023-01-27T12:19:18.074Z,99412.10
2023-01-27T12:21:50.151Z,99431.90
2023-01-27T12:24:27.947Z,99456.65
2023-01-27T12:26:56.760Z,99491.04
2023-01-27T12:29:29.661Z,99516.82
2023-01-27T12:32:06.250Z,99540.43
2023-01-27T12:34:36.962Z,99562.70
2023-01-27T12:37:06.965Z,99581.23
2023-01-27T12:57:48.889Z,99622.79
2023-01-27T13:00:19.510Z,99616.73
2023-01-27T13:02:48.696Z,99620.36
2023-01-27T13:05:19.423Z,99624.55
2023-01-27T13:07:50.869Z,99619.70
2023-01-27T13:10:23.985Z,99615.16
2023-01-27T13:12:56.365Z,99623.81
2023-01-27T13:15:30.800Z,99620.20
2023-01-27T13:18:00.085Z,99622.09
2023-01-27T13:20:51.637Z,99629.34
2023-01-27T13:23:23.807Z,99641.15
2023-01-27T13:26:10.054Z,99637.15
2023-01-27T13:28:53.436Z,99630.07
2023-01-27T13:31:59.807Z,99632.93
2023-01-27T13:34:49.846Z,99626.63
2023-01-27T13:37:34.274Z,99626.14
2023-01-27T13:40:30.846Z,99620.92
2023-01-27T13:43:05.738Z,99616.27
2023-01-27T13:45:46.427Z,99613.60
2023-01-27T13:48:22.895Z,99605.95
2023-01-27T13:51:06.874Z,99602.91
2023-01-27T13:53:35.640Z,99604.36
2023-01-27T13:56:19.470Z,99605.52
2023-01-27T13:59:21.202Z,99600.70
2023-01-27T14:02:01.893Z,99595.98
2023-01-27T14:04:32.084Z,99594.39
2023-01-27T14:07:38.998Z,99587.59
2023-01-27T14:10:49.973Z,99586.56
2023-01-27T14:13:42.830Z,99583.43
2023-01-27T14:16:14.785Z,99576.80
2023-01-27T14:18:47.339Z,99572.42
2023-01-27T14:21:39.824Z,99562.86
2023-01-27T14:24:21.468Z,99557.05
2023-01-27T14:26:53.051Z,99543.68
2023-01-27T14:29:51.121Z,99539.10
2023-01-27T14:32:35.684Z,99533.08
2023-01-27T14:35:07.891Z,99530.61
2023-01-27T14:37:38.071Z,99521.55
2023-01-27T14:40:37.574Z,99515.92
2023-01-27T14:43:26.760Z,99504.25
2023-01-27T14:46:16.073Z,99494.27
2023-01-27T14:49:10.613Z,99487.65
2023-01-27T14:51:51.080Z,99486.75
2023-01-27T14:54:52.012Z,99478.11
2023-01-27T14:57:25.943Z,99478.55
2023-01-27T15:00:23.999Z,99477.77
2023-01-27T15:03:23.542Z,99475.05
2023-01-27T15:06:02.345Z,99470.52
2023-01-27T15:09:09.302Z,99465.69
2023-01-27T15:11:38.291Z,99462.14
2023-01-27T15:14:22.449Z,99453.02
2023-01-27T15:17:12.869Z,99443.54
2023-01-27T15:20:13.658Z,99432.76
2023-01-27T15:23:04.358Z,99426.86
2023-01-27T15:25:36.663Z,99424.38
2023-01-27T15:28:05.846Z,99427.56
2023-01-27T15:30:37.548Z,99419.17
2023-01-27T15:33:44.794Z,99417.27
2023-01-27T15:36:27.868Z,99412.34
2023-01-27T15:39:10.739Z,99413.14
2023-01-27T15:41:54.775Z,99409.65
2023-01-27T15:44:31.563Z,99401.72
2023-01-27T15:47:08.532Z,99401.27
2023-01-27T15:49:42.855Z,99402.09
2023-01-27T15:52:19.123Z,99398.89
2023-01-27T15:54:50.279Z,99398.23
2023-01-27T15:57:24.778Z,99394.91
2023-01-27T15:59:59.162Z,99395.08
2023-01-27T16:02:29.688Z,99394.95
2023-01-27T16:05:16.208Z,99388.73
2023-01-27T16:07:51.262Z,99381.09
2023-01-27T16:10:22.637Z,99373.10
2023-01-27T16:13:13.108Z,99374.39
2023-01-27T16:15:47.218Z,99375.23
2023-01-27T20:18:33.913Z,99106.43
2023-01-27T20:21:02.342Z,99102.80
2023-01-27T20:23:30.343Z,99106.29
2023-01-27T20:25:58.321Z,99108.25
2023-01-27T20:28:28.009Z,99106.89
2023-01-27T20:30:56.270Z,99101.56
2023-01-27T20:33:25.420Z,99099.81
2023-01-27T20:35:54.367Z,99106.91
2023-01-27T20:38:25.687Z,99108.13
2023-01-27T20:40:54.462Z,99108.89
2023-01-27T20:43:34.773Z,99111.70
2023-01-27T20:46:07.895Z,99113.63
2023-01-27T20:48:35.877Z,99113.09
2023-01-27T20:51:09.017Z,99115.20
2023-01-27T20:53:43.217Z,99116.95
2023-01-27T20:56:21.227Z,99115.52
2023-01-27T20:58:49.504Z,99117.64
2023-01-27T21:01:22.162Z,99119.71
2023-01-27T21:03:50.233Z,99118.51
2023-01-27T21:06:19.621Z,99116.32
2023-01-27T21:08:48.786Z,99114.34
2023-01-27T21:11:18.363Z,99117.01
2023-01-27T21:13:48.015Z,99115.66
2023-01-27T21:16:15.824Z,99109.60
2023-01-27T21:18:55.444Z,99106.00
2023-01-27T21:21:25.117Z,99100.55
2023-01-27T21:24:00.482Z,99099.77
2023-01-27T21:26:28.383Z,99100.35
2023-01-27T21:28:57.160Z,99104.88
2023-01-27T21:31:29.853Z,99100.80
2023-01-27T21:34:01.296Z,99102.23
2023-01-27T21:36:30.303Z,99104.95
2023-01-27T21:39:02.129Z,99106.02
2023-01-27T21:41:50.837Z,99108.23
2023-01-27T21:44:45.773Z,99111.94
2023-01-27T21:47:19.304Z,99110.59
2023-01-27T21:50:02.586Z,99111.60
2023-01-27T21:52:50.608Z,99113.56
2023-01-27T21:55:23.349Z,99114.82
2023-01-27T21:57:51.899Z,99122.08
2023-01-27T22:00:43.956Z,99120.30
2023-01-27T22:03:11.269Z,99125.41
2023-01-27T22:05:40.275Z,99124.70
2023-01-27T22:08:27.841Z,99125.38
2023-01-27T22:11:06.226Z,99127.70
2023-01-27T22:13:34.790Z,99124.35
2023-01-27T22:16:04.545Z,99129.02
2023-01-27T22:18:32.403Z,99132.40
2023-01-27T22:21:01.072Z,99135.70
2023-01-27T22:23:28.603Z,99135.20
2023-01-27T22:25:57.775Z,99135.54
2023-01-27T22:28:26.401Z,99140.41
2023-01-27T22:30:54.212Z,99140.54
2023-01-27T22:33:24.076Z,99136.41
2023-01-27T22:36:02.955Z,99132.83
2023-01-27T22:38:30.689Z,99141.40
2023-01-27T22:40:58.330Z,99145.14
2023-01-27T22:43:26.835Z,99139.27
2023-01-27T22:45:54.229Z,99134.84
2023-01-27T22:48:22.220Z,99138.23
2023-01-27T22:50:49.586Z,99142.50
2023-01-27T22:53:17.159Z,99148.33
2023-01-27T22:55:44.578Z,99143.01
2023-01-27T22:58:14.109Z,99145.23
2023-01-27T23:00:42.195Z,99149.91
2023-01-27T23:03:12.589Z,99155.35
2023-01-27T23:05:40.988Z,99153.95
2023-01-27T23:08:09.267Z,99153.58
2023-01-27T23:10:38.982Z,99147.69
2023-01-27T23:13:07.956Z,99141.19
2023-01-27T23:15:45.963Z,99138.92
2023-01-27T23:18:13.306Z,99139.29
2023-01-27T23:20:41.789Z,99139.71
2023-01-27T23:23:10.360Z,99144.59
2023-01-27T23:25:44.691Z,99145.66
2023-01-27T23:28:13.045Z,99140.54
2023-01-27T23:31:05.026Z,99142.14
2023-01-27T23:33:40.659Z,99144.13
2023-01-27T23:36:08.835Z,99144.02
2023-01-27T23:38:36.478Z,99144.25
2023-01-27T23:41:08.132Z,99141.76
2023-01-27T23:43:35.591Z,99138.13
2023-01-27T23:46:03.082Z,99137.92
2023-01-27T23:48:32.516Z,99129.86
2023-01-27T23:51:06.331Z,99123.20
2023-01-27T23:53:33.747Z,99128.36
2023-01-27T23:56:01.279Z,99123.39
2023-01-27T23:58:28.964Z,99125.25
